Time;durP1;ratioP1;P1;durP2;ratioP2;P2;SDS_P1;SDS_P2;PMS_P1;PMS_P2;Temp;Humidity;BMP_temperature;BMP_pressure;BME280_temperature;BME280_humidity;BME280_pressure;Samples;Min_cycle;Max_cycle;Signal;HPM_P1;HPM_P2
2021/11/07 00:01:00;;;;;;;14.90;9.85;;;;;;;;;;2131675;27;20129;-43
2021/11/07 00:02:17;;;;;;;13.68;9.75;;;;;;;;;;2126265;27;20055;-43
2021/11/07 00:03:22;;;;;;;14.23;9.23;;;;;;;;;;2130194;27;20043;-43
2021/11/07 00:04:34;;;;;;;15.45;10.48;;;;;;;;;;2129357;27;20515;-43
2021/11/07 00:05:40;;;;;;;;;;;;;;;;;;2131644;27;20049;-43
2021/11/07 00:06:49;;;;;;;18.95;10.18;;;;;;;;;;2131486;27;20018;-43
2021/11/07 00:07:57;;;;;;;19.42;11.15;;;;;;;;;;2127865;27;20135;-43
2021/11/07 00:09:05;;;;;;;20.30;10.77;;;;;;;;;;2131520;27;20164;-43
2021/11/07 00:10:11;;;;;;;19.52;10.75;;;;;;;;;;2129179;27;20133;-43
2021/11/07 00:11:29;;;;;;;17.15;9.77;;;;;;;;;;2128772;27;20457;-43
2021/11/07 00:12:32;;;;;;;19.85;11.32;;;;;;;;;;2131271;27;20074;-43
2021/11/07 00:13:33;;;;;;;20.48;11.88;;;;;;;;;;2127897;27;20612;-43
2021/11/07 00:14:34;;;;;;;19.23;10.95;;;;;;;;;;2130187;27;20554;-43
2021/11/07 00:15:35;;;;;;;15.98;9.32;;;;;;;;;;2131524;27;20084;-43
2021/11/07 00:16:38;;;;;;;13.80;9.23;;;;;;;;;;2127845;27;20047;-43
2021/11/07 00:17:45;;;;;;;15.52;10.32;;;;;;;;;;2130413;27;20457;-43
2021/11/07 00:18:55;;;;;;;15.00;9.88;;;;;;;;;;2131598;27;20134;-43
2021/11/07 00:19:59;;;;;;;14.20;10.07;;;;;;;;;;2127901;27;20090;-43
2021/11/07 00:21:05;;;;;;;18.38;10.13;;;;;;;;;;2131393;27;20395;-43
2021/11/07 00:22:12;;;;;;;17.45;9.90;;;;;;;;;;2128695;27;20134;-47
2021/11/07 00:23:22;;;;;;;15.10;10.27;;;;;;;;;;2130161;27;20129;-47
2021/11/07 00:24:30;;;;;;;15.70;10.10;;;;;;;;;;2131414;27;20046;-47
2021/11/07 00:25:41;;;;;;;15.15;9.13;;;;;;;;;;2127902;27;20070;-47
2021/11/07 00:26:54;;;;;;;14.23;10.23;;;;;;;;;;2122738;28;20057;-48
2021/11/07 00:27:58;;;;;;;16.50;10.88;;;;;;;;;;2123644;27;20130;-49
2021/11/07 00:29:03;;;;;;;16.73;9.93;;;;;;;;;;2129269;27;20121;-47
2021/11/07 00:30:14;;;;;;;15.88;10.73;;;;;;;;;;2131472;27;20134;-47
2021/11/07 00:31:22;;;;;;;16.70;10.15;;;;;;;;;;2127898;27;20047;-47
2021/11/07 00:32:27;;;;;;;16.10;10.77;;;;;;;;;;2130284;27;20136;-46
2021/11/07 00:33:41;;;;;;;16.38;9.65;;;;;;;;;;2131409;27;20131;-47
2021/11/07 00:37:22;;;;;;;17.02;10.95;;;;;;;;;;2127220;27;20130;-47
2021/11/07 00:38:25;;;;;;;14.55;9.98;;;;;;;;;;2130663;27;20043;-47
2021/11/07 00:39:33;;;;;;;15.88;10.38;;;;;;;;;;2131282;27;20133;-47
2021/11/07 00:40:40;;;;;;;16.83;10.07;;;;;;;;;;2127734;27;20042;-47
2021/11/07 00:41:49;;;;;;;15.77;9.98;;;;;;;;;;2131265;27;20133;-46
2021/11/07 00:42:55;;;;;;;16.60;9.50;;;;;;;;;;2129507;27;20388;-48
2021/11/07 00:44:01;;;;;;;15.02;9.57;;;;;;;;;;2129454;27;20175;-47
2021/11/07 00:45:07;;;;;;;14.88;9.68;;;;;;;;;;2131228;27;20141;-47
2021/11/07 00:46:14;;;;;;;12.88;8.70;;;;;;;;;;2127863;27;21334;-49
2021/11/07 00:47:30;;;;;;;14.10;9.70;;;;;;;;;;2130242;27;20130;-47
2021/11/07 00:48:35;;;;;;;16.17;10.30;;;;;;;;;;2130815;27;20117;-48
2021/11/07 00:49:41;;;;;;;15.35;10.40;;;;;;;;;;2128015;27;20039;-48
2021/11/07 00:50:48;;;;;;;15.98;10.60;;;;;;;;;;2131224;27;20459;-46
2021/11/07 00:52:03;;;;;;;18.02;11.07;;;;;;;;;;2127582;27;20051;-46
2021/11/07 00:53:22;;;;;;;15.00;9.77;;;;;;;;;;2130924;27;20049;-47
2021/11/07 00:54:27;;;;;;;14.55;10.40;;;;;;;;;;2131176;27;20091;-47
2021/11/07 00:55:35;;;;;;;16.30;10.57;;;;;;;;;;2128185;27;20103;-47
2021/11/07 00:56:40;;;;;;;18.15;11.13;;;;;;;;;;2131225;27;20112;-47
2021/11/07 00:57:50;;;;;;;17.33;10.70;;;;;;;;;;2129069;27;20047;-49
2021/11/07 00:59:08;;;;;;;18.80;11.13;;;;;;;;;;2129985;27;20076;-47
2021/11/07 01:00:15;;;;;;;19.75;12.32;;;;;;;;;;2131192;27;20440;-47
2021/11/07 01:01:19;;;;;;;17.67;11.85;;;;;;;;;;2127526;27;20133;-47
2021/11/07 01:02:22;;;;;;;17.38;11.95;;;;;;;;;;2131186;27;20129;-47
2021/11/07 01:03:24;;;;;;;21.02;11.30;;;;;;;;;;2129121;27;20038;-47
2021/11/07 01:04:27;;;;;;;16.73;11.45;;;;;;;;;;2127948;27;20133;-49
2021/11/07 01:05:30;;;;;;;19.48;11.50;;;;;;;;;;2131318;27;20135;-48
2021/11/07 01:06:31;;;;;;;16.45;10.40;;;;;;;;;;2129828;27;20103;-47
2021/11/07 01:07:32;;;;;;;20.08;12.20;;;;;;;;;;2128833;27;20038;-48
2021/11/07 01:08:34;;;;;;;18.50;12.55;;;;;;;;;;2131310;27;20050;-48
2021/11/07 01:09:35;;;;;;;20.20;12.15;;;;;;;;;;2128935;27;20521;-47
2021/11/07 01:10:36;;;;;;;19.17;12.60;;;;;;;;;;2129671;27;20047;-47
2021/11/07 01:11:37;;;;;;;20.42;11.00;;;;;;;;;;2131181;27;20038;-47
2021/11/07 01:12:39;;;;;;;19.63;12.55;;;;;;;;;;2129043;27;20121;-48
2021/11/07 01:13:40;;;;;;;17.02;10.88;;;;;;;;;;2129626;27;20070;-47
2021/11/07 01:14:41;;;;;;;17.23;11.23;;;;;;;;;;2131113;27;20049;-48
2021/11/07 01:15:42;;;;;;;17.30;10.97;;;;;;;;;;2128219;27;20283;-48
2021/11/07 01:16:43;;;;;;;18.33;11.93;;;;;;;;;;2130485;27;20668;-49
2021/11/07 01:17:44;;;;;;;17.98;11.55;;;;;;;;;;2132756;27;20042;-47
2021/11/07 01:18:46;;;;;;;15.90;11.02;;;;;;;;;;2126038;27;20047;-47
2021/11/07 01:19:48;;;;;;;17.77;10.95;;;;;;;;;;2132349;27;20043;-47
2021/11/07 01:20:49;;;;;;;17.25;11.05;;;;;;;;;;2132628;27;20130;-48
2021/11/07 01:21:50;;;;;;;19.85;12.43;;;;;;;;;;2129041;27;20046;-47
2021/11/07 01:22:56;;;;;;;16.83;11.32;;;;;;;;;;2132378;27;20078;-48
2021/11/07 01:23:59;;;;;;;17.88;10.45;;;;;;;;;;2132709;27;20051;-49
2021/11/07 01:25:02;;;;;;;18.42;10.73;;;;;;;;;;2130107;27;20038;-48
2021/11/07 01:26:07;;;;;;;16.80;10.38;;;;;;;;;;2132649;27;20043;-51
2021/11/07 01:27:17;;;;;;;17.23;11.85;;;;;;;;;;2132154;27;20371;-48
2021/11/07 01:28:19;;;;;;;15.65;10.18;;;;;;;;;;2130323;27;20133;-48
2021/11/07 01:29:22;;;;;;;16.25;11.70;;;;;;;;;;2132543;27;20562;-48
2021/11/07 01:30:25;;;;;;;18.40;11.45;;;;;;;;;;2130325;27;20045;-48
2021/11/07 01:31:26;;;;;;;18.70;11.32;;;;;;;;;;2131034;27;20047;-48
2021/11/07 01:32:27;;;;;;;17.92;11.43;;;;;;;;;;2132382;27;20125;-51
2021/11/07 01:33:30;;;;;;;16.50;11.35;;;;;;;;;;2130525;27;21741;-48
2021/11/07 01:34:43;;;;;;;18.27;12.15;;;;;;;;;;2130959;27;20054;-48
2021/11/07 01:35:49;;;;;;;19.23;11.80;;;;;;;;;;2132632;27;20129;-48
2021/11/07 01:36:55;;;;;;;19.52;12.40;;;;;;;;;;2127393;27;20978;-48
2021/11/07 01:37:59;;;;;;;18.50;11.77;;;;;;;;;;2132622;27;20049;-48
2021/11/07 01:39:09;;;;;;;16.73;11.07;;;;;;;;;;2131993;27;20107;-48
2021/11/07 01:40:13;;;;;;;16.92;11.93;;;;;;;;;;2130343;27;20043;-49
2021/11/07 01:41:22;;;;;;;17.73;11.95;;;;;;;;;;2132377;27;20497;-48
2021/11/07 01:42:31;;;;;;;17.67;11.90;;;;;;;;;;2129522;27;20145;-48
2021/11/07 01:43:32;;;;;;;18.00;11.95;;;;;;;;;;2123917;28;20126;-49
2021/11/07 01:44:37;;;;;;;19.73;11.93;;;;;;;;;;2123955;28;20051;-48
2021/11/07 01:45:42;;;;;;;19.58;12.18;;;;;;;;;;2128240;27;20133;-47
2021/11/07 01:46:46;;;;;;;21.75;13.07;;;;;;;;;;2132375;27;20042;-48
2021/11/07 01:47:50;;;;;;;23.70;13.50;;;;;;;;;;2130891;27;20531;-48
2021/11/07 01:48:57;;;;;;;18.42;11.90;;;;;;;;;;2129856;27;20043;-47
2021/11/07 01:49:59;;;;;;;19.10;12.20;;;;;;;;;;2132496;27;20126;-48
2021/11/07 01:51:01;;;;;;;18.02;11.85;;;;;;;;;;2130288;27;20125;-48
2021/11/07 01:52:04;;;;;;;18.67;12.40;;;;;;;;;;2131855;27;20492;-48
2021/11/07 01:53:09;;;;;;;18.77;11.73;;;;;;;;;;2132413;27;20117;-47
2021/11/07 01:54:21;;;;;;;21.00;12.90;;;;;;;;;;2128940;27;20171;-48
2021/11/07 01:55:22;;;;;;;18.65;11.98;;;;;;;;;;2123834;28;20077;-48
2021/11/07 01:56:23;;;;;;;14.73;10.93;;;;;;;;;;2124001;28;20367;-48
2021/11/07 01:57:25;;;;;;;17.52;11.43;;;;;;;;;;2128163;27;20134;-48
2021/11/07 01:58:32;;;;;;;17.60;11.52;;;;;;;;;;2132493;27;20049;-48
2021/11/07 01:59:41;;;;;;;18.27;11.60;;;;;;;;;;2131830;27;20043;-48
2021/11/07 02:00:43;;;;;;;18.20;11.93;;;;;;;;;;2127830;27;20042;-48
2021/11/07 02:01:44;;;;;;;17.23;11.25;;;;;;;;;;2123577;28;20059;-48
2021/11/07 02:02:46;;;;;;;19.48;12.57;;;;;;;;;;2124985;27;20046;-48
2021/11/07 02:03:46;;;;;;;15.27;10.98;;;;;;;;;;2130401;27;20046;-48
2021/11/07 02:04:48;;;;;;;17.00;12.18;;;;;;;;;;2132275;27;20449;-47
2021/11/07 02:05:49;;;;;;;20.05;11.43;;;;;;;;;;2130137;27;20047;-48
2021/11/07 02:06:50;;;;;;;18.85;11.60;;;;;;;;;;2131853;27;20512;-48
2021/11/07 02:07:51;;;;;;;19.05;11.95;;;;;;;;;;2132222;27;20043;-48
2021/11/07 02:08:52;;;;;;;17.52;11.25;;;;;;;;;;2130200;27;20118;-48
2021/11/07 02:09:54;;;;;;;19.27;11.77;;;;;;;;;;2131127;27;20126;-48
2021/11/07 02:10:56;;;;;;;18.65;12.15;;;;;;;;;;2132453;27;20081;-47
2021/11/07 02:11:56;;;;;;;17.95;12.63;;;;;;;;;;2127445;27;20042;-48
2021/11/07 02:12:58;;;;;;;17.97;10.73;;;;;;;;;;2131984;27;20081;-48
2021/11/07 02:13:59;;;;;;;18.80;11.23;;;;;;;;;;2132405;27;20129;-48
2021/11/07 02:15:00;;;;;;;18.55;11.77;;;;;;;;;;2128077;27;20330;-48
2021/11/07 02:16:02;;;;;;;20.35;11.98;;;;;;;;;;2132233;27;20129;-48
2021/11/07 02:17:04;;;;;;;18.33;12.02;;;;;;;;;;2132138;27;20118;-48
2021/11/07 02:18:05;;;;;;;17.98;11.23;;;;;;;;;;2128581;27;20130;-49
2021/11/07 02:19:06;;;;;;;17.23;11.30;;;;;;;;;;2132154;27;20129;-48
2021/11/07 02:20:10;;;;;;;20.38;12.02;;;;;;;;;;2131925;27;20047;-50
2021/11/07 02:21:12;;;;;;;17.58;11.63;;;;;;;;;;2128459;27;20431;-48
2021/11/07 02:22:13;;;;;;;;;;;;;;;;;;2131747;27;20039;-49
2021/11/07 02:23:15;;;;;;;16.08;11.23;;;;;;;;;;2131257;27;20432;-47
2021/11/07 02:24:17;;;;;;;18.42;11.68;;;;;;;;;;2128897;27;20460;-48
2021/11/07 02:25:18;;;;;;;13.95;10.05;;;;;;;;;;2132155;27;20104;-47
2021/11/07 02:26:20;;;;;;;16.20;10.90;;;;;;;;;;2131124;27;20134;-47
2021/11/07 02:27:23;;;;;;;17.42;11.05;;;;;;;;;;2129714;27;20500;-48
2021/11/07 02:28:25;;;;;;;18.17;11.68;;;;;;;;;;2131857;27;20043;-48
2021/11/07 02:29:27;;;;;;;19.08;11.32;;;;;;;;;;2130019;27;20467;-47
2021/11/07 02:30:28;;;;;;;16.10;10.73;;;;;;;;;;2130538;27;20070;-48
2021/11/07 02:31:30;;;;;;;16.45;10.38;;;;;;;;;;2132250;27;20050;-47
2021/11/07 02:32:31;;;;;;;18.35;11.18;;;;;;;;;;2129697;27;20045;-48
2021/11/07 02:33:33;;;;;;;15.03;11.40;;;;;;;;;;2130789;27;20138;-47
2021/11/07 02:34:34;;;;;;;18.52;11.25;;;;;;;;;;2132182;27;20391;-48
2021/11/07 02:35:35;;;;;;;18.57;11.50;;;;;;;;;;2129765;27;20120;-48
2021/11/07 02:36:37;;;;;;;17.58;10.32;;;;;;;;;;2125612;27;20279;-48
2021/11/07 02:37:38;;;;;;;16.67;10.80;;;;;;;;;;2123303;28;20139;-47
2021/11/07 02:38:40;;;;;;;18.55;11.57;;;;;;;;;;2126099;27;20453;-48
2021/11/07 02:39:41;;;;;;;14.55;9.60;;;;;;;;;;2131827;27;20038;-48
2021/11/07 02:40:42;;;;;;;17.25;12.05;;;;;;;;;;2132116;27;20050;-49
2021/11/07 02:41:43;;;;;;;17.90;11.40;;;;;;;;;;2128995;27;20051;-47
2021/11/07 02:42:45;;;;;;;13.60;9.70;;;;;;;;;;2131535;27;20130;-47
2021/11/07 02:43:48;;;;;;;16.80;11.55;;;;;;;;;;2131946;27;20043;-47
2021/11/07 02:44:49;;;;;;;14.35;10.55;;;;;;;;;;2128509;27;20186;-47
2021/11/07 02:45:50;;;;;;;17.50;11.27;;;;;;;;;;2132129;27;20143;-48
2021/11/07 02:46:51;;;;;;;16.85;10.38;;;;;;;;;;2131870;27;20043;-47
2021/11/07 02:47:52;;;;;;;15.95;10.77;;;;;;;;;;2128339;27;20095;-47
2021/11/07 02:48:54;;;;;;;15.13;10.55;;;;;;;;;;2132091;27;20656;-48
2021/11/07 02:49:55;;;;;;;15.40;10.57;;;;;;;;;;2131549;27;20076;-47
2021/11/07 02:50:56;;;;;;;18.23;10.45;;;;;;;;;;2129855;27;20133;-47
2021/11/07 02:51:59;;;;;;;16.97;10.73;;;;;;;;;;2132063;27;20176;-48
2021/11/07 02:53:00;;;;;;;17.77;11.00;;;;;;;;;;2131155;27;20372;-47
2021/11/07 02:54:02;;;;;;;13.85;9.88;;;;;;;;;;2129271;27;20049;-49
2021/11/07 02:55:03;;;;;;;15.43;10.30;;;;;;;;;;2132035;27;20046;-47
2021/11/07 02:56:05;;;;;;;16.63;10.23;;;;;;;;;;2130204;27;20129;-49
2021/11/07 02:57:07;;;;;;;18.27;10.63;;;;;;;;;;2129506;27;20047;-48
2021/11/07 02:58:08;;;;;;;17.38;10.90;;;;;;;;;;2131886;27;20199;-47
2021/11/07 02:59:16;;;;;;;15.40;10.48;;;;;;;;;;2127809;27;20092;-47
2021/11/07 03:00:19;;;;;;;17.05;10.55;;;;;;;;;;2131304;27;20049;-47
2021/11/07 03:01:21;;;;;;;16.35;10.20;;;;;;;;;;2132045;27;20043;-47
2021/11/07 03:02:22;;;;;;;15.75;10.05;;;;;;;;;;2128430;27;20042;-47
2021/11/07 03:03:23;;;;;;;14.20;9.45;;;;;;;;;;2130301;27;20138;-48
2021/11/07 03:04:25;;;;;;;15.70;10.40;;;;;;;;;;2131938;27;20130;-47
2021/11/07 03:05:28;;;;;;;17.08;10.43;;;;;;;;;;2129084;27;20130;-47
2021/11/07 03:06:30;;;;;;;15.00;10.57;;;;;;;;;;2131543;27;20137;-49
2021/11/07 03:07:31;;;;;;;15.50;10.32;;;;;;;;;;2131791;27;20392;-48
2021/11/07 03:08:38;;;;;;;16.45;10.35;;;;;;;;;;2128843;27;20141;-48
2021/11/07 03:09:40;;;;;;;17.05;11.25;;;;;;;;;;2123292;28;20476;-49
2021/11/07 03:10:40;;;;;;;18.60;10.63;;;;;;;;;;2123108;27;20059;-48
2021/11/07 03:11:43;;;;;;;16.23;11.17;;;;;;;;;;2128904;27;20438;-47
2021/11/07 03:12:44;;;;;;;17.73;10.30;;;;;;;;;;2131874;27;20087;-47
2021/11/07 03:13:46;;;;;;;16.02;10.50;;;;;;;;;;2129660;27;20547;-51
2021/11/07 03:14:48;;;;;;;16.55;10.63;;;;;;;;;;2129182;27;20657;-47
2021/11/07 03:15:49;;;;;;;17.67;10.80;;;;;;;;;;2131830;27;20134;-47
2021/11/07 03:16:50;;;;;;;19.13;12.07;;;;;;;;;;2130160;27;20126;-48
2021/11/07 03:17:51;;;;;;;19.40;11.82;;;;;;;;;;2129168;27;20369;-47
2021/11/07 03:18:52;;;;;;;15.00;11.23;;;;;;;;;;2131927;27;20046;-47
2021/11/07 03:19:54;;;;;;;18.42;11.23;;;;;;;;;;2129617;27;20129;-48
2021/11/07 03:20:55;;;;;;;15.52;9.65;;;;;;;;;;2130237;27;20531;-48
2021/11/07 03:21:56;;;;;;;17.87;11.60;;;;;;;;;;2131844;27;20047;-49
2021/11/07 03:22:58;;;;;;;17.10;11.30;;;;;;;;;;2129519;27;20411;-48
2021/11/07 03:23:59;;;;;;;20.70;12.93;;;;;;;;;;2130396;27;20046;-48
2021/11/07 03:25:02;;;;;;;20.70;11.57;;;;;;;;;;2131862;27;20163;-47
2021/11/07 03:26:07;;;;;;;16.50;11.48;;;;;;;;;;2129559;27;20236;-47
2021/11/07 03:27:13;;;;;;;18.50;11.93;;;;;;;;;;2130384;27;20270;-47
2021/11/07 03:28:14;;;;;;;18.40;11.90;;;;;;;;;;2131760;27;20138;-47
2021/11/07 03:29:16;;;;;;;19.05;12.32;;;;;;;;;;2128096;27;20049;-48
2021/11/07 03:30:25;;;;;;;18.98;12.15;;;;;;;;;;2131706;27;20565;-48
2021/11/07 03:31:33;;;;;;;18.73;11.68;;;;;;;;;;2131408;27;20118;-49
2021/11/07 03:32:38;;;;;;;17.80;11.90;;;;;;;;;;2130079;27;20049;-48
2021/11/07 03:33:42;;;;;;;19.90;11.77;;;;;;;;;;2131673;27;20047;-47
2021/11/07 03:34:45;;;;;;;20.65;12.82;;;;;;;;;;2128311;27;20134;-50
2021/11/07 03:35:47;;;;;;;18.00;12.00;;;;;;;;;;2131241;27;20103;-47
2021/11/07 03:36:50;;;;;;;20.98;12.65;;;;;;;;;;2131610;27;20508;-47
2021/11/07 03:37:57;;;;;;;19.08;11.57;;;;;;;;;;2128683;27;20050;-48
2021/11/07 03:38:58;;;;;;;19.75;11.35;;;;;;;;;;2131601;27;20064;-47
2021/11/07 03:40:01;;;;;;;17.80;11.02;;;;;;;;;;2130952;27;20043;-47
2021/11/07 03:41:02;;;;;;;20.80;13.02;;;;;;;;;;2126665;27;20578;-47
2021/11/07 03:42:05;;;;;;;19.98;13.05;;;;;;;;;;2131575;27;20133;-47
2021/11/07 03:43:06;;;;;;;18.58;12.00;;;;;;;;;;2131626;27;20171;-48
2021/11/07 03:44:07;;;;;;;19.67;12.20;;;;;;;;;;2128176;27;20051;-47
2021/11/07 03:45:08;;;;;;;19.40;12.30;;;;;;;;;;2131653;27;20046;-48
2021/11/07 03:46:10;;;;;;;18.15;12.27;;;;;;;;;;2131724;27;20125;-47
2021/11/07 03:47:11;;;;;;;17.00;11.63;;;;;;;;;;2127849;27;20043;-47
2021/11/07 03:48:13;;;;;;;18.17;12.48;;;;;;;;;;2131648;27;20050;-48
2021/11/07 03:49:13;;;;;;;;;;;;;;;;;;2131489;27;20495;-47
2021/11/07 03:50:15;;;;;;;19.42;11.50;;;;;;;;;;2128517;27;19919;-47
2021/11/07 03:51:16;;;;;;;18.30;11.15;;;;;;;;;;2131532;27;20057;-48
2021/11/07 03:52:17;;;;;;;21.27;12.68;;;;;;;;;;2131183;27;20066;-47
2021/11/07 03:53:18;;;;;;;19.27;12.20;;;;;;;;;;2128526;27;20126;-47
2021/11/07 03:54:22;;;;;;;17.70;11.70;;;;;;;;;;2131584;27;20046;-49
2021/11/07 03:55:23;;;;;;;20.88;12.68;;;;;;;;;;2130124;27;20054;-47
2021/11/07 03:56:24;;;;;;;18.87;11.90;;;;;;;;;;2129485;27;20039;-48
2021/11/07 03:57:25;;;;;;;18.13;12.57;;;;;;;;;;2131409;27;20287;-47
2021/11/07 03:58:26;;;;;;;20.10;11.43;;;;;;;;;;2129537;27;20051;-47
2021/11/07 03:59:27;;;;;;;17.48;12.48;;;;;;;;;;2130098;27;20111;-48
2021/11/07 04:00:28;;;;;;;18.00;11.73;;;;;;;;;;2131639;27;20095;-47
2021/11/07 04:01:29;;;;;;;18.35;12.75;;;;;;;;;;2129476;27;20038;-48
2021/11/07 04:02:30;;;;;;;19.77;13.15;;;;;;;;;;2130147;27;20107;-47
2021/11/07 04:03:31;;;;;;;19.48;12.27;;;;;;;;;;2130009;27;20038;-48
2021/11/07 04:04:32;;;;;;;20.85;12.57;;;;;;;;;;2128315;27;20051;-47
2021/11/07 04:05:34;;;;;;;18.92;11.85;;;;;;;;;;2131008;27;20346;-47
2021/11/07 04:06:36;;;;;;;20.52;12.45;;;;;;;;;;2131561;27;20072;-47
2021/11/07 04:07:37;;;;;;;20.55;13.05;;;;;;;;;;2127659;27;20408;-47
2021/11/07 04:08:39;;;;;;;23.27;14.98;;;;;;;;;;2131285;27;20039;-47
2021/11/07 04:09:40;;;;;;;19.38;12.70;;;;;;;;;;2131424;27;20437;-47
2021/11/07 04:10:41;;;;;;;19.73;13.52;;;;;;;;;;2128806;27;20133;-47
2021/11/07 04:11:43;;;;;;;21.77;13.25;;;;;;;;;;2130713;27;20137;-47
2021/11/07 04:12:44;;;;;;;21.42;13.82;;;;;;;;;;2131634;27;20130;-48
2021/11/07 04:13:47;;;;;;;20.10;12.93;;;;;;;;;;2127888;27;20571;-47
2021/11/07 04:14:48;;;;;;;19.95;13.23;;;;;;;;;;2122953;28;20126;-47
2021/11/07 04:15:49;;;;;;;21.58;13.00;;;;;;;;;;2122885;28;20480;-46
2021/11/07 04:16:50;;;;;;;19.33;12.87;;;;;;;;;;2127221;27;20046;-47
2021/11/07 04:17:51;;;;;;;20.33;13.05;;;;;;;;;;2131496;27;20130;-47
2021/11/07 04:18:52;;;;;;;20.60;14.15;;;;;;;;;;2131003;27;20054;-47
2021/11/07 04:19:53;;;;;;;21.50;13.10;;;;;;;;;;2129361;27;20047;-48
2021/11/07 04:20:54;;;;;;;18.05;12.10;;;;;;;;;;2131498;27;20054;-47
2021/11/07 04:22:00;;;;;;;21.30;14.13;;;;;;;;;;2130837;27;20073;-46
2021/11/07 04:23:02;;;;;;;22.40;13.73;;;;;;;;;;2128771;27;20162;-49
2021/11/07 04:24:03;;;;;;;20.67;11.98;;;;;;;;;;2131504;27;20055;-46
2021/11/07 04:25:05;;;;;;;17.33;12.20;;;;;;;;;;2129743;27;20078;-47
2021/11/07 04:26:07;;;;;;;19.02;12.80;;;;;;;;;;2130058;27;20049;-46
2021/11/07 04:27:08;;;;;;;21.02;13.30;;;;;;;;;;2131448;27;20050;-47
2021/11/07 04:28:08;;;;;;;27.77;17.02;;;;;;;;;;2129157;27;20038;-47
2021/11/07 04:29:10;;;;;;;30.17;19.33;;;;;;;;;;2131015;27;20480;-47
2021/11/07 04:30:11;;;;;;;48.67;27.95;;;;;;;;;;2131364;27;20554;-47
2021/11/07 04:31:12;;;;;;;36.55;22.23;;;;;;;;;;2128817;27;20518;-46
2021/11/07 04:32:13;;;;;;;33.22;22.33;;;;;;;;;;2130297;27;20142;-46
2021/11/07 04:33:15;;;;;;;26.67;18.15;;;;;;;;;;2131424;27;20053;-47
2021/11/07 04:34:16;;;;;;;35.70;22.13;;;;;;;;;;2126565;27;20046;-47
2021/11/07 04:35:17;;;;;;;34.88;24.83;;;;;;;;;;2131179;27;20054;-47
2021/11/07 04:36:18;;;;;;;28.15;19.98;;;;;;;;;;2131416;27;20130;-47
2021/11/07 04:37:20;;;;;;;21.88;15.25;;;;;;;;;;2128160;27;20034;-48
2021/11/07 04:38:21;;;;;;;30.90;19.23;;;;;;;;;;2131016;27;20047;-47
2021/11/07 04:39:23;;;;;;;25.00;17.77;;;;;;;;;;2131293;27;20129;-47
2021/11/07 04:40:25;;;;;;;26.20;17.27;;;;;;;;;;2128262;27;20057;-46
2021/11/07 04:41:27;;;;;;;25.73;17.17;;;;;;;;;;2130931;27;20551;-46
2021/11/07 04:42:28;;;;;;;26.77;17.88;;;;;;;;;;2131212;27;20137;-46
2021/11/07 04:43:29;;;;;;;24.85;16.50;;;;;;;;;;2127631;27;20045;-47
2021/11/07 04:44:30;;;;;;;24.92;16.73;;;;;;;;;;2131276;27;20053;-47
2021/11/07 04:45:32;;;;;;;22.33;16.10;;;;;;;;;;2131351;27;20065;-46
2021/11/07 04:46:36;;;;;;;22.77;13.80;;;;;;;;;;2127719;27;20042;-47
2021/11/07 04:47:36;;;;;;;18.58;13.77;;;;;;;;;;2131115;27;20523;-46
2021/11/07 04:48:37;;;;;;;27.83;14.75;;;;;;;;;;2130757;27;20039;-46
2021/11/07 04:49:38;;;;;;;19.73;12.98;;;;;;;;;;2128137;27;20047;-46
2021/11/07 04:50:40;;;;;;;24.03;14.60;;;;;;;;;;2131247;27;20042;-46
2021/11/07 04:51:41;;;;;;;19.98;13.13;;;;;;;;;;2130385;27;20271;-47
2021/11/07 04:52:42;;;;;;;18.90;13.27;;;;;;;;;;2129967;27;20134;-47
2021/11/07 04:53:45;;;;;;;23.95;13.63;;;;;;;;;;2132751;27;20049;-47
2021/11/07 04:54:46;;;;;;;21.25;13.40;;;;;;;;;;2130579;27;20094;-47
2021/11/07 04:55:48;;;;;;;22.98;13.15;;;;;;;;;;2131420;27;20121;-46
2021/11/07 04:56:49;;;;;;;22.58;14.15;;;;;;;;;;2132789;27;20042;-47
2021/11/07 04:57:50;;;;;;;20.23;14.70;;;;;;;;;;2130653;27;20125;-46
2021/11/07 04:58:51;;;;;;;22.35;14.93;;;;;;;;;;2131232;27;20054;-46
2021/11/07 04:59:52;;;;;;;23.35;14.75;;;;;;;;;;2132841;27;20120;-47
2021/11/07 05:00:53;;;;;;;22.05;14.98;;;;;;;;;;2130668;27;20058;-46
2021/11/07 05:01:55;;;;;;;24.23;14.35;;;;;;;;;;2131099;27;20522;-47
2021/11/07 05:02:57;;;;;;;24.15;14.65;;;;;;;;;;2131405;27;20194;-47
2021/11/07 05:03:58;;;;;;;22.13;13.60;;;;;;;;;;2129002;27;20122;-47
2021/11/07 05:04:59;;;;;;;22.17;13.85;;;;;;;;;;2132554;27;20137;-46
2021/11/07 05:06:00;;;;;;;24.13;15.10;;;;;;;;;;2132791;27;20050;-46
2021/11/07 05:07:02;;;;;;;23.02;15.13;;;;;;;;;;2128979;27;20138;-46
2021/11/07 05:08:03;;;;;;;26.65;13.88;;;;;;;;;;2131548;27;20147;-46
2021/11/07 05:09:04;;;;;;;24.15;13.90;;;;;;;;;;2132786;27;20055;-48
2021/11/07 05:10:06;;;;;;;23.67;16.08;;;;;;;;;;2129233;27;20072;-48
2021/11/07 05:11:07;;;;;;;24.92;15.25;;;;;;;;;;2132509;27;20575;-47
2021/11/07 05:12:09;;;;;;;23.98;15.35;;;;;;;;;;2132559;27;20520;-46
2021/11/07 05:13:10;;;;;;;22.00;14.75;;;;;;;;;;2129196;27;20129;-43
2021/11/07 05:14:11;;;;;;;20.77;13.52;;;;;;;;;;2132787;27;20046;-42
2021/11/07 05:15:12;;;;;;;23.45;15.20;;;;;;;;;;2132664;27;20542;-42
2021/11/07 05:16:14;;;;;;;24.00;13.40;;;;;;;;;;2127887;27;20043;-42
2021/11/07 05:17:14;;;;;;;24.75;14.27;;;;;;;;;;2132517;27;20188;-42
2021/11/07 05:18:18;;;;;;;21.52;14.23;;;;;;;;;;2132252;27;20042;-42
2021/11/07 05:19:19;;;;;;;26.08;17.42;;;;;;;;;;2129658;27;20079;-46
2021/11/07 05:20:20;;;;;;;23.33;15.07;;;;;;;;;;2132550;27;20183;-47
2021/11/07 05:21:21;;;;;;;26.30;15.68;;;;;;;;;;2130389;27;20042;-47
2021/11/07 05:22:23;;;;;;;25.33;15.13;;;;;;;;;;2129950;27;20402;-48
2021/11/07 05:23:24;;;;;;;24.35;15.82;;;;;;;;;;2132562;27;20494;-47
2021/11/07 05:24:24;;;;;;;22.10;15.07;;;;;;;;;;2130778;27;20154;-47
2021/11/07 05:25:26;;;;;;;23.17;14.63;;;;;;;;;;2127103;27;20050;-47
2021/11/07 05:26:27;;;;;;;23.20;14.90;;;;;;;;;;2123970;28;20091;-46
2021/11/07 05:27:29;;;;;;;22.73;14.52;;;;;;;;;;2125225;27;20121;-47
2021/11/07 05:28:33;;;;;;;21.65;13.63;;;;;;;;;;2129851;27;20388;-46
2021/11/07 05:29:34;;;;;;;21.67;14.75;;;;;;;;;;2132464;27;20482;-46
2021/11/07 05:30:36;;;;;;;19.92;13.20;;;;;;;;;;2129493;27;20129;-47
2021/11/07 05:31:37;;;;;;;21.15;13.85;;;;;;;;;;2132044;27;20410;-46
2021/11/07 05:32:38;;;;;;;25.52;14.18;;;;;;;;;;2132371;27;20557;-46
2021/11/07 05:33:40;;;;;;;21.58;14.50;;;;;;;;;;2129248;27;20090;-46
2021/11/07 05:34:42;;;;;;;22.08;14.38;;;;;;;;;;2132251;27;20481;-46
2021/11/07 05:35:43;;;;;;;23.73;14.80;;;;;;;;;;2132294;27;20491;-46
2021/11/07 05:36:45;;;;;;;22.55;15.23;;;;;;;;;;2129820;27;20070;-47
2021/11/07 05:37:46;;;;;;;21.15;13.20;;;;;;;;;;2131791;27;20207;-47
2021/11/07 05:38:47;;;;;;;23.48;14.15;;;;;;;;;;2132616;27;20039;-45
2021/11/07 05:39:48;;;;;;;22.42;14.75;;;;;;;;;;2128649;27;20050;-50
2021/11/07 05:40:49;;;;;;;22.95;14.90;;;;;;;;;;2132468;27;20519;-47
2021/11/07 05:41:51;;;;;;;24.42;15.43;;;;;;;;;;2132383;27;20060;-47
2021/11/07 05:42:52;;;;;;;21.83;13.90;;;;;;;;;;2128932;27;20142;-47
2021/11/07 05:43:53;;;;;;;23.35;14.25;;;;;;;;;;2132361;27;20562;-48
2021/11/07 05:44:54;;;;;;;20.55;13.80;;;;;;;;;;2132018;27;20499;-47
2021/11/07 05:45:55;;;;;;;22.37;14.37;;;;;;;;;;2129268;27;21045;-47
2021/11/07 05:46:56;;;;;;;24.35;13.65;;;;;;;;;;2132266;27;20045;-47
2021/11/07 05:47:58;;;;;;;22.08;14.50;;;;;;;;;;2131948;27;20493;-48
2021/11/07 05:48:59;;;;;;;23.33;15.00;;;;;;;;;;2129276;27;20122;-48
2021/11/07 05:50:00;;;;;;;23.27;14.52;;;;;;;;;;2132560;27;20089;-48
2021/11/07 05:51:01;;;;;;;22.80;15.00;;;;;;;;;;2131585;27;20039;-49
2021/11/07 05:52:02;;;;;;;23.58;14.30;;;;;;;;;;2129746;27;20047;-47
2021/11/07 05:53:03;;;;;;;20.67;13.27;;;;;;;;;;2132404;27;20296;-47
2021/11/07 05:54:05;;;;;;;25.00;14.07;;;;;;;;;;2130827;27;20099;-48
2021/11/07 05:55:06;;;;;;;22.02;14.95;;;;;;;;;;2129793;27;20129;-47
2021/11/07 05:56:08;;;;;;;22.05;15.07;;;;;;;;;;2132303;27;20269;-48
2021/11/07 05:57:09;;;;;;;27.10;17.08;;;;;;;;;;2130187;27;20042;-46
2021/11/07 05:58:10;;;;;;;28.45;17.55;;;;;;;;;;2130731;27;20050;-47
2021/11/07 05:59:11;;;;;;;29.42;17.08;;;;;;;;;;2132460;27;20056;-47
2021/11/07 06:00:13;;;;;;;31.00;19.03;;;;;;;;;;2125407;27;20043;-47
2021/11/07 06:01:14;;;;;;;23.58;15.23;;;;;;;;;;2130853;27;20079;-47
2021/11/07 06:02:15;;;;;;;30.07;18.03;;;;;;;;;;2132298;27;20050;-47
2021/11/07 06:03:16;;;;;;;32.13;19.00;;;;;;;;;;2127313;27;20074;-48
2021/11/07 06:04:17;;;;;;;31.17;18.70;;;;;;;;;;2131084;27;20463;-46
2021/11/07 06:05:19;;;;;;;25.88;17.25;;;;;;;;;;2132397;27;20055;-47
2021/11/07 06:06:20;;;;;;;31.25;20.23;;;;;;;;;;2129007;27;20179;-46
2021/11/07 06:07:21;;;;;;;26.95;17.33;;;;;;;;;;2132378;27;20050;-47
2021/11/07 06:08:22;;;;;;;28.73;19.63;;;;;;;;;;2131745;27;20051;-50
2021/11/07 06:09:23;;;;;;;24.80;16.43;;;;;;;;;;2129077;27;20042;-47